createdAt,value
2023-03-27T00:00:43.818Z,0.00
2023-03-27T00:01:43.833Z,0.00
2023-03-27T00:02:43.871Z,0.00
2023-03-27T00:03:43.911Z,0.00
2023-03-27T00:04:43.761Z,0.00
2023-03-27T00:05:43.751Z,0.00
2023-03-27T00:06:43.733Z,0.00
2023-03-27T00:07:43.717Z,0.00
2023-03-27T00:08:43.706Z,0.00
2023-03-27T00:09:43.699Z,0.00
2023-03-27T00:10:43.687Z,0.00
2023-03-27T00:11:43.674Z,0.00
2023-03-27T00:12:43.660Z,0.00
2023-03-27T00:13:49.404Z,0.00
2023-03-27T00:14:44.818Z,0.00
2023-03-27T00:15:43.626Z,0.00
2023-03-27T00:16:43.659Z,0.00
2023-03-27T00:17:43.626Z,0.00
2023-03-27T00:18:43.603Z,0.00
2023-03-27T00:19:43.560Z,0.00
2023-03-27T00:20:43.543Z,0.00
2023-03-27T00:21:43.539Z,0.00
2023-03-27T00:22:43.521Z,0.00
2023-03-27T00:23:43.517Z,0.00
2023-03-27T00:24:43.496Z,0.00
2023-03-27T00:25:43.491Z,0.00
2023-03-27T00:26:43.469Z,0.00
2023-03-27T00:27:43.468Z,0.00
2023-03-27T00:28:43.451Z,0.00
2023-03-27T00:29:43.431Z,0.00
2023-03-27T00:30:43.445Z,0.00
2023-03-27T00:31:43.407Z,0.00
2023-03-27T00:32:43.453Z,0.00
2023-03-27T00:33:43.384Z,0.00
2023-03-27T00:34:43.406Z,0.00
2023-03-27T00:35:43.768Z,0.00
2023-03-27T00:36:43.331Z,0.00
2023-03-27T00:37:43.324Z,0.00
2023-03-27T00:38:43.305Z,0.00
2023-03-27T00:39:43.650Z,0.00
2023-03-27T00:40:43.310Z,0.00
2023-03-27T00:41:43.267Z,0.00
2023-03-27T00:42:43.250Z,0.00
2023-03-27T00:43:43.246Z,0.00
2023-03-27T00:44:43.225Z,0.00
2023-03-27T00:45:43.324Z,0.00
2023-03-27T00:46:43.265Z,0.00
2023-03-27T00:47:43.267Z,0.00
2023-03-27T00:48:43.178Z,0.00
2023-03-27T00:49:43.164Z,0.00
2023-03-27T00:50:43.168Z,0.00
2023-03-27T00:51:43.138Z,0.00
2023-03-27T00:52:43.159Z,0.00
2023-03-27T00:53:43.112Z,0.00
2023-03-27T00:54:43.096Z,0.00
2023-03-27T00:55:43.086Z,0.00
2023-03-27T00:56:43.109Z,0.00
2023-03-27T00:57:43.086Z,0.00
2023-03-27T00:58:43.085Z,0.00
2023-03-27T00:59:43.041Z,0.00
2023-03-27T01:00:43.015Z,0.00
2023-03-27T01:01:43.041Z,0.00
2023-03-27T01:02:43.056Z,0.00
2023-03-27T01:03:43.065Z,0.00
2023-03-27T01:04:42.967Z,0.00
2023-03-27T01:05:42.952Z,0.00
2023-03-27T01:06:42.960Z,0.00
2023-03-27T01:07:42.924Z,0.00
2023-03-27T01:08:43.937Z,0.00
2023-03-27T01:09:42.896Z,0.00
2023-03-27T01:10:42.885Z,0.00
2023-03-27T01:11:42.879Z,0.00
2023-03-27T01:12:42.856Z,0.00
2023-03-27T01:13:42.846Z,0.00
2023-03-27T01:14:42.828Z,0.00
2023-03-27T01:15:42.825Z,0.00
2023-03-27T01:16:42.796Z,0.00
2023-03-27T01:17:42.887Z,0.00
2023-03-27T01:18:42.764Z,0.00
2023-03-27T01:19:42.762Z,0.00
2023-03-27T01:20:42.738Z,0.00
2023-03-27T01:21:42.727Z,0.00
2023-03-27T01:22:42.733Z,0.00
2023-03-27T01:23:59.763Z,0.00
2023-03-27T01:24:43.718Z,0.00
2023-03-27T01:25:42.681Z,0.00
2023-03-27T01:26:42.669Z,0.00
2023-03-27T01:27:42.649Z,0.00
2023-03-27T01:28:42.643Z,0.00
2023-03-27T01:29:42.617Z,0.00
2023-03-27T01:30:42.608Z,0.00
2023-03-27T01:31:42.622Z,0.00
2023-03-27T01:32:42.596Z,0.00
2023-03-27T01:33:42.568Z,0.00
2023-03-27T01:34:42.909Z,0.00
2023-03-27T01:35:42.555Z,0.00
2023-03-27T01:36:42.521Z,0.00
2023-03-27T01:37:42.509Z,0.00
2023-03-27T01:38:42.521Z,0.00
2023-03-27T01:39:42.483Z,0.00
2023-03-27T01:40:42.472Z,0.00
2023-03-27T01:41:42.464Z,0.00
2023-03-27T01:42:42.450Z,0.00
2023-03-27T01:43:42.437Z,0.00
2023-03-27T01:44:45.280Z,0.00
2023-03-27T01:45:42.398Z,0.00
2023-03-27T01:46:42.423Z,0.00
2023-03-27T01:47:42.411Z,0.00
2023-03-27T01:48:42.365Z,0.00
2023-03-27T01:49:42.343Z,0.00
2023-03-27T01:50:42.342Z,0.00
2023-03-27T01:51:42.321Z,0.00
2023-03-27T01:52:42.310Z,0.00
2023-03-27T01:53:42.302Z,0.00
2023-03-27T01:54:42.313Z,0.00
2023-03-27T01:55:42.265Z,0.00
2023-03-27T01:56:42.277Z,0.00
2023-03-27T01:57:49.233Z,0.00
2023-03-27T01:58:43.251Z,0.00
2023-03-27T01:59:42.214Z,0.00
2023-03-27T02:00:51.921Z,0.00
2023-03-27T02:01:43.343Z,0.00
2023-03-27T02:02:42.203Z,0.00
2023-03-27T02:03:42.155Z,0.00
2023-03-27T02:04:42.174Z,0.00
2023-03-27T02:05:42.129Z,0.00
2023-03-27T02:06:42.120Z,0.00
2023-03-27T02:07:42.106Z,0.00
2023-03-27T02:08:42.101Z,0.00
2023-03-27T02:09:42.081Z,0.00
2023-03-27T02:10:42.084Z,0.00
2023-03-27T02:11:42.044Z,0.00
2023-03-27T02:12:42.038Z,0.00
2023-03-27T02:13:42.021Z,0.00
2023-03-27T02:14:42.007Z,0.00
2023-03-27T02:15:41.998Z,0.00
2023-03-27T02:16:42.012Z,0.00
2023-03-27T02:17:42.000Z,0.00
2023-03-27T02:18:41.955Z,0.00
2023-03-27T02:19:42.299Z,0.00
2023-03-27T02:20:41.930Z,0.00
2023-03-27T02:21:41.920Z,0.00
2023-03-27T02:22:41.897Z,0.00
2023-03-27T02:23:41.896Z,0.00
2023-03-27T02:24:41.871Z,0.00
2023-03-27T02:25:41.861Z,0.00
2023-03-27T02:26:41.871Z,0.00
2023-03-27T02:27:41.831Z,0.00
2023-03-27T02:28:41.826Z,0.00
2023-03-27T02:29:41.806Z,0.00
2023-03-27T02:30:41.790Z,0.00
2023-03-27T02:31:41.840Z,0.00
2023-03-27T02:32:41.878Z,0.00
2023-03-27T02:33:41.743Z,0.00
2023-03-27T02:34:41.737Z,0.00
2023-03-27T02:35:41.730Z,0.00
2023-03-27T02:36:41.710Z,0.00
2023-03-27T02:37:41.689Z,0.00
2023-03-27T02:38:41.686Z,0.00
2023-03-27T02:39:41.870Z,0.00
2023-03-27T02:40:41.655Z,0.00
2023-03-27T02:41:41.886Z,0.00
2023-03-27T02:42:41.649Z,0.00
2023-03-27T02:43:42.011Z,0.00
2023-03-27T02:44:46.342Z,0.00
2023-03-27T02:45:42.617Z,0.00
2023-03-27T02:46:41.578Z,0.00
2023-03-27T02:47:41.576Z,0.00
2023-03-27T02:48:41.545Z,0.00
2023-03-27T02:49:41.536Z,0.00
2023-03-27T02:50:41.525Z,0.00
2023-03-27T02:51:41.529Z,0.00
2023-03-27T02:52:41.798Z,0.00
2023-03-27T02:53:41.490Z,0.00
2023-03-27T02:54:41.474Z,0.00
2023-03-27T02:55:41.457Z,0.00
2023-03-27T02:56:41.468Z,0.00
2023-03-27T02:57:41.426Z,0.00
2023-03-27T02:58:42.527Z,0.00
2023-03-27T02:59:41.397Z,0.00
2023-03-27T03:00:41.391Z,0.00
2023-03-27T03:01:41.413Z,0.00
2023-03-27T03:02:41.427Z,0.00
2023-03-27T03:03:41.345Z,0.00
2023-03-27T03:04:41.341Z,0.00
2023-03-27T03:05:41.364Z,0.00
2023-03-27T03:06:41.311Z,0.00
2023-03-27T03:07:41.299Z,0.00
2023-03-27T03:08:41.283Z,0.00
2023-03-27T03:09:41.366Z,0.00
2023-03-27T03:10:41.257Z,0.00
2023-03-27T03:11:41.243Z,0.00
2023-03-27T03:12:41.225Z,0.00
2023-03-27T03:13:41.228Z,0.00
2023-03-27T03:14:41.229Z,0.00
2023-03-27T03:15:41.192Z,0.00
2023-03-27T03:16:41.237Z,0.00
2023-03-27T03:17:41.180Z,0.00
2023-03-27T03:18:41.142Z,0.00
2023-03-27T03:19:41.132Z,0.00
2023-03-27T03:20:41.122Z,0.00
2023-03-27T03:21:41.102Z,0.00
2023-03-27T03:22:41.095Z,0.00
2023-03-27T03:23:41.072Z,0.00
2023-03-27T03:24:41.070Z,0.00
2023-03-27T03:25:41.054Z,0.00
2023-03-27T03:26:41.040Z,0.00
2023-03-27T03:27:41.024Z,0.00
2023-03-27T03:28:41.018Z,0.00
2023-03-27T03:29:42.028Z,0.00
2023-03-27T03:30:41.054Z,0.00
2023-03-27T03:31:40.969Z,0.00
2023-03-27T03:32:41.003Z,0.00
2023-03-27T03:33:40.947Z,0.00
2023-03-27T03:34:40.932Z,0.00
2023-03-27T03:35:40.926Z,0.00
2023-03-27T03:36:40.902Z,0.00
2023-03-27T03:37:40.891Z,0.00
2023-03-27T03:38:40.875Z,0.00
2023-03-27T03:39:40.889Z,0.00
2023-03-27T03:40:40.849Z,0.00
2023-03-27T03:41:40.848Z,0.00
2023-03-27T03:42:40.825Z,0.00
2023-03-27T03:43:40.813Z,0.00
2023-03-27T03:44:40.793Z,0.00
2023-03-27T03:45:40.788Z,0.00
2023-03-27T03:46:40.885Z,0.00
2023-03-27T03:47:40.796Z,0.00
2023-03-27T03:48:40.744Z,0.00
2023-03-27T03:49:40.735Z,0.00
2023-03-27T03:50:40.918Z,0.00
2023-03-27T03:51:40.711Z,0.00
2023-03-27T03:52:40.689Z,0.00
2023-03-27T03:53:40.678Z,0.00
2023-03-27T03:54:40.661Z,0.00
2023-03-27T03:55:40.647Z,0.00
2023-03-27T03:56:40.661Z,0.00
2023-03-27T03:57:40.612Z,0.00
2023-03-27T03:58:40.603Z,0.00
2023-03-27T03:59:40.597Z,0.00
2023-03-27T04:00:40.584Z,0.00
2023-03-27T04:01:40.591Z,0.00
2023-03-27T04:02:40.687Z,0.00
2023-03-27T04:03:40.629Z,0.00
2023-03-27T04:04:40.525Z,0.00
2023-03-27T04:05:40.509Z,0.00
2023-03-27T04:06:40.497Z,0.00
2023-03-27T04:07:40.634Z,0.00
2023-03-27T04:08:40.468Z,0.00
2023-03-27T04:09:40.459Z,0.00
2023-03-27T04:10:40.444Z,0.00
2023-03-27T04:11:40.426Z,0.00
2023-03-27T04:12:40.410Z,0.00
2023-03-27T04:13:40.406Z,0.00
2023-03-27T04:14:40.386Z,0.00
2023-03-27T04:15:40.418Z,0.00
2023-03-27T04:16:40.360Z,0.00
2023-03-27T04:17:40.444Z,0.00
2023-03-27T04:18:40.427Z,0.00
2023-03-27T04:19:40.318Z,0.00
2023-03-27T04:20:40.297Z,0.00
2023-03-27T04:21:40.288Z,0.00
2023-03-27T04:22:40.422Z,0.00
2023-03-27T04:23:40.258Z,0.00
2023-03-27T04:24:40.250Z,0.00
2023-03-27T04:25:40.303Z,0.00
2023-03-27T04:26:40.215Z,0.00
2023-03-27T04:27:40.204Z,0.00
2023-03-27T04:28:40.196Z,0.00
2023-03-27T04:29:40.182Z,0.00
2023-03-27T04:30:40.169Z,0.00
2023-03-27T04:31:40.207Z,0.00
2023-03-27T04:32:40.182Z,0.00
2023-03-27T04:33:40.130Z,0.00
2023-03-27T04:34:40.137Z,0.00
2023-03-27T04:35:40.167Z,0.00
2023-03-27T04:36:40.083Z,0.00
2023-03-27T04:37:40.076Z,0.00
2023-03-27T04:38:40.070Z,0.00
2023-03-27T04:39:40.054Z,0.00
2023-03-27T04:40:40.036Z,0.00
2023-03-27T04:41:40.017Z,0.00
2023-03-27T04:42:40.008Z,0.00
2023-03-27T04:43:39.998Z,0.00
2023-03-27T04:44:39.978Z,0.00
2023-03-27T04:45:39.971Z,0.00
2023-03-27T04:46:39.967Z,0.00
2023-03-27T04:47:39.990Z,0.00
2023-03-27T04:48:39.951Z,0.00
2023-03-27T04:49:39.910Z,0.00
2023-03-27T04:50:39.916Z,0.00
2023-03-27T04:51:39.888Z,0.00
2023-03-27T04:52:39.868Z,0.00
2023-03-27T04:53:39.871Z,0.00
2023-03-27T04:54:39.993Z,0.00
2023-03-27T04:55:39.829Z,0.00
2023-03-27T04:56:39.818Z,0.00
2023-03-27T04:57:39.828Z,0.00
2023-03-27T04:58:39.795Z,0.00
2023-03-27T04:59:39.778Z,0.00
2023-03-27T05:00:39.754Z,0.00
2023-03-27T05:01:39.785Z,0.00
2023-03-27T05:02:39.766Z,0.00
2023-03-27T05:03:39.749Z,0.00
2023-03-27T05:04:39.706Z,0.00
2023-03-27T05:05:39.691Z,0.00
2023-03-27T05:06:40.642Z,0.00
2023-03-27T05:07:39.663Z,0.00
2023-03-27T05:08:39.648Z,0.00
2023-03-27T05:09:39.643Z,0.00
2023-03-27T05:10:39.628Z,0.00
2023-03-27T05:11:39.626Z,0.00
2023-03-27T05:12:39.592Z,5.62
2023-03-27T05:13:39.590Z,5.62
2023-03-27T05:14:39.568Z,5.62
2023-03-27T05:15:39.560Z,5.62
2023-03-27T05:16:39.576Z,5.62
2023-03-27T05:17:39.616Z,5.62
2023-03-27T05:18:41.794Z,5.62
2023-03-27T05:19:39.506Z,5.62
2023-03-27T05:20:39.482Z,5.62
2023-03-27T05:21:39.550Z,11.25
2023-03-27T05:22:39.482Z,11.25
2023-03-27T05:23:39.457Z,11.25
2023-03-27T05:24:39.434Z,11.25
2023-03-27T05:25:39.447Z,11.25
2023-03-27T05:26:39.408Z,16.88
2023-03-27T05:27:39.395Z,16.88
2023-03-27T05:28:39.389Z,16.88
2023-03-27T05:29:46.835Z,16.88
2023-03-27T05:30:40.441Z,22.50
2023-03-27T05:31:39.347Z,22.50
2023-03-27T05:32:39.366Z,22.50
2023-03-27T05:33:39.318Z,22.50
2023-03-27T05:34:39.302Z,28.12
2023-03-27T05:35:39.317Z,33.75
2023-03-27T05:36:39.284Z,33.75
2023-03-27T05:37:39.274Z,39.38
2023-03-27T05:38:39.505Z,39.38
2023-03-27T05:39:39.248Z,39.38
2023-03-27T05:40:39.223Z,39.38
2023-03-27T05:41:39.206Z,39.38
2023-03-27T05:42:39.192Z,39.38
2023-03-27T05:43:39.524Z,33.75
2023-03-27T05:44:39.171Z,33.75
2023-03-27T05:45:39.161Z,33.75
2023-03-27T05:46:39.167Z,33.75
2023-03-27T05:47:39.160Z,33.75
2023-03-27T05:48:39.125Z,33.75
2023-03-27T05:49:39.102Z,39.38
2023-03-27T05:50:39.092Z,39.38
2023-03-27T05:51:39.087Z,45.00
2023-03-27T05:52:40.086Z,45.00
2023-03-27T05:53:39.053Z,45.00
2023-03-27T05:54:39.078Z,45.00
2023-03-27T05:55:39.028Z,45.00
2023-03-27T05:56:39.064Z,50.62
2023-03-27T05:57:39.002Z,50.62
2023-03-27T05:58:38.993Z,56.25
2023-03-27T05:59:38.974Z,61.88
2023-03-27T06:00:38.965Z,61.88
2023-03-27T06:01:38.944Z,61.88
2023-03-27T06:02:39.049Z,67.50
2023-03-27T06:03:39.185Z,67.50
2023-03-27T06:04:38.942Z,67.50
2023-03-27T06:05:38.891Z,73.12
2023-03-27T06:06:38.879Z,78.75
2023-03-27T06:07:40.857Z,84.38
2023-03-27T06:08:38.879Z,78.75
2023-03-27T06:09:38.842Z,84.38
2023-03-27T06:10:39.157Z,90.00
2023-03-27T06:11:38.924Z,101.25
2023-03-27T06:12:38.807Z,106.88
2023-03-27T06:13:38.795Z,106.88
2023-03-27T06:14:38.781Z,112.50
2023-03-27T06:15:38.784Z,118.12
2023-03-27T06:16:38.754Z,123.75
2023-03-27T06:17:38.735Z,129.38
2023-03-27T06:18:38.749Z,129.38
2023-03-27T06:19:38.718Z,135.00
2023-03-27T06:20:38.697Z,135.00
2023-03-27T06:21:40.948Z,135.00
2023-03-27T06:22:38.677Z,140.62
2023-03-27T06:23:38.663Z,146.25
2023-03-27T06:24:38.661Z,157.50
2023-03-27T06:25:38.638Z,163.12
2023-03-27T06:26:38.640Z,174.38
2023-03-27T06:27:38.602Z,180.00
2023-03-27T06:28:38.595Z,185.62
2023-03-27T06:29:38.583Z,191.25
2023-03-27T06:30:38.565Z,196.88
2023-03-27T06:31:38.567Z,202.50
2023-03-27T06:32:38.564Z,208.12
2023-03-27T06:33:38.540Z,208.12
2023-03-27T06:34:38.526Z,202.50
2023-03-27T06:35:38.523Z,202.50
2023-03-27T06:36:38.487Z,208.12
2023-03-27T06:37:38.469Z,225.00
2023-03-27T06:38:38.468Z,230.62
2023-03-27T06:39:38.441Z,230.62
2023-03-27T06:40:38.434Z,213.75
2023-03-27T06:41:38.519Z,202.50
2023-03-27T06:42:38.436Z,213.75
2023-03-27T06:43:38.389Z,225.00
2023-03-27T06:44:38.372Z,236.25
2023-03-27T06:45:38.358Z,253.12
2023-03-27T06:46:45.148Z,253.12
2023-03-27T06:47:51.701Z,236.25
2023-03-27T06:48:39.402Z,230.62
2023-03-27T06:49:38.307Z,219.38
2023-03-27T06:50:38.293Z,196.88
2023-03-27T06:51:38.296Z,196.88
2023-03-27T06:52:38.288Z,196.88
2023-03-27T06:53:38.379Z,208.12
2023-03-27T06:54:38.235Z,191.25
2023-03-27T06:55:38.223Z,185.62
2023-03-27T06:56:38.231Z,191.25
2023-03-27T06:57:38.324Z,180.00
2023-03-27T06:58:38.212Z,168.75
2023-03-27T06:59:38.203Z,180.00
2023-03-27T07:00:38.397Z,174.38
2023-03-27T07:01:38.157Z,180.00
2023-03-27T07:02:38.193Z,185.62
2023-03-27T07:03:38.109Z,196.88
2023-03-27T07:04:38.108Z,208.12
2023-03-27T07:05:38.135Z,219.38
2023-03-27T07:06:39.640Z,275.62
2023-03-27T07:07:40.319Z,303.75
2023-03-27T07:08:38.045Z,337.50
2023-03-27T07:09:40.043Z,343.12
2023-03-27T07:10:38.012Z,326.25
2023-03-27T07:11:38.000Z,303.75
2023-03-27T07:12:37.990Z,270.00
2023-03-27T07:13:37.973Z,298.12
2023-03-27T07:14:37.985Z,298.12
2023-03-27T07:15:37.946Z,292.50
2023-03-27T07:16:38.231Z,303.75
2023-03-27T07:17:48.123Z,298.12
2023-03-27T07:18:38.929Z,253.12
2023-03-27T07:19:37.889Z,241.88
2023-03-27T07:20:37.873Z,208.12
2023-03-27T07:21:37.860Z,230.62
2023-03-27T07:22:37.847Z,230.62
2023-03-27T07:23:37.833Z,225.00
2023-03-27T07:24:37.820Z,253.12
2023-03-27T07:25:37.818Z,275.62
2023-03-27T07:26:37.800Z,303.75
2023-03-27T07:27:37.780Z,320.62
2023-03-27T07:28:37.771Z,416.25
2023-03-27T07:29:37.792Z,371.25
2023-03-27T07:30:37.770Z,320.62
2023-03-27T07:32:38.169Z,461.25
2023-03-27T07:33:37.741Z,506.25
2023-03-27T07:34:37.687Z,528.75
2023-03-27T07:35:37.683Z,568.12
2023-03-27T07:36:37.672Z,511.88
2023-03-27T07:37:38.217Z,534.38
2023-03-27T07:38:37.629Z,551.25
2023-03-27T07:39:37.632Z,489.38
2023-03-27T07:40:40.349Z,466.88
2023-03-27T07:41:37.583Z,556.88
2023-03-27T07:42:37.571Z,596.25
2023-03-27T07:43:37.560Z,596.25
2023-03-27T07:44:37.547Z,590.62
2023-03-27T07:45:37.576Z,630.00
2023-03-27T07:46:37.543Z,585.00
2023-03-27T07:47:37.525Z,483.75
2023-03-27T07:48:37.498Z,472.50
2023-03-27T07:49:38.832Z,472.50
2023-03-27T07:50:37.491Z,517.50
2023-03-27T07:51:37.454Z,545.62
2023-03-27T07:52:37.438Z,630.00
2023-03-27T07:53:37.429Z,720.00
2023-03-27T07:54:37.415Z,691.88
2023-03-27T07:55:37.401Z,635.62
2023-03-27T07:56:37.479Z,646.88
2023-03-27T07:57:46.431Z,613.12
2023-03-27T07:58:38.413Z,556.88
2023-03-27T07:59:37.350Z,483.75
2023-03-27T08:00:37.333Z,427.50
2023-03-27T08:01:37.316Z,472.50
2023-03-27T08:02:37.364Z,534.38
2023-03-27T08:03:37.514Z,596.25
2023-03-27T08:04:37.371Z,601.88
2023-03-27T08:05:37.278Z,585.00
2023-03-27T08:06:37.254Z,596.25
2023-03-27T08:07:37.245Z,573.75
2023-03-27T08:08:37.224Z,528.75
2023-03-27T08:09:37.212Z,511.88
2023-03-27T08:10:37.197Z,500.62
2023-03-27T08:11:37.183Z,483.75
2023-03-27T08:12:37.170Z,433.12
2023-03-27T08:13:37.157Z,427.50
2023-03-27T08:14:37.149Z,450.00
2023-03-27T08:15:37.124Z,438.75
2023-03-27T08:16:37.162Z,410.62
2023-03-27T08:17:37.219Z,388.12
2023-03-27T08:18:37.107Z,382.50
2023-03-27T08:19:37.073Z,399.38
2023-03-27T08:20:37.066Z,427.50
2023-03-27T08:21:37.048Z,455.62
2023-03-27T08:22:37.050Z,478.12
2023-03-27T08:23:37.025Z,427.50
2023-03-27T08:24:37.012Z,382.50
2023-03-27T08:25:37.262Z,382.50
2023-03-27T08:26:36.993Z,416.25
2023-03-27T08:27:36.979Z,450.00
2023-03-27T08:28:36.952Z,438.75
2023-03-27T08:29:36.946Z,427.50
2023-03-27T08:30:36.949Z,416.25
2023-03-27T08:31:36.912Z,478.12
2023-03-27T08:32:36.962Z,523.12
2023-03-27T08:33:36.884Z,568.12
2023-03-27T08:34:36.896Z,590.62
2023-03-27T08:35:36.906Z,630.00
2023-03-27T08:36:36.839Z,686.25
2023-03-27T08:37:36.825Z,781.88
2023-03-27T08:38:36.812Z,984.38
2023-03-27T08:39:36.798Z,810.00
2023-03-27T08:40:36.792Z,894.38
2023-03-27T08:41:36.772Z,1051.88
2023-03-27T08:42:36.853Z,1856.25
2023-03-27T08:43:36.743Z,765.00
2023-03-27T08:44:36.787Z,1186.88
2023-03-27T08:45:36.730Z,1333.12
2023-03-27T08:46:36.749Z,973.12
2023-03-27T08:47:37.162Z,1541.25
2023-03-27T08:48:36.680Z,1299.38
2023-03-27T08:49:36.668Z,2025.00
2023-03-27T08:50:36.684Z,1434.38
2023-03-27T08:51:36.639Z,703.12
2023-03-27T08:52:36.664Z,2120.62
2023-03-27T08:53:36.611Z,1288.12
2023-03-27T08:54:36.602Z,2441.25
2023-03-27T08:55:36.587Z,742.50
2023-03-27T08:56:36.632Z,607.50
2023-03-27T08:57:36.558Z,1102.50
2023-03-27T08:58:36.849Z,703.12
2023-03-27T08:59:36.536Z,579.38
2023-03-27T09:00:36.526Z,562.50
2023-03-27T09:01:36.611Z,663.75
2023-03-27T09:02:36.782Z,956.25
2023-03-27T09:03:36.531Z,2283.75
2023-03-27T09:04:37.688Z,2491.88
2023-03-27T09:05:36.453Z,2081.25
2023-03-27T09:06:36.471Z,1130.62
2023-03-27T09:07:36.466Z,2356.88
2023-03-27T09:08:36.411Z,2154.38
2023-03-27T09:09:36.421Z,2283.75
2023-03-27T09:10:36.385Z,2278.12
2023-03-27T09:11:36.369Z,2193.75
2023-03-27T09:12:38.406Z,2210.62
2023-03-27T09:13:36.344Z,2311.88
2023-03-27T09:14:36.324Z,2418.75
2023-03-27T09:15:36.307Z,2581.88
2023-03-27T09:16:36.337Z,2660.62
2023-03-27T09:17:36.327Z,2446.88
2023-03-27T09:18:36.269Z,2750.62
2023-03-27T09:19:36.261Z,2548.12
2023-03-27T09:20:36.241Z,2424.38
2023-03-27T09:21:36.229Z,2407.50
2023-03-27T09:22:36.237Z,2188.12
2023-03-27T09:23:36.202Z,2340.00
2023-03-27T09:24:36.192Z,2413.12
2023-03-27T09:25:36.174Z,416.25
2023-03-27T09:26:36.166Z,472.50
2023-03-27T09:27:36.152Z,2491.88
2023-03-27T09:28:36.135Z,2446.88
2023-03-27T09:29:36.124Z,2418.75
2023-03-27T09:30:36.329Z,2463.75
2023-03-27T09:31:36.154Z,2626.88
2023-03-27T09:32:36.101Z,2778.75
2023-03-27T09:33:36.073Z,2896.88
2023-03-27T09:34:36.058Z,2930.62
2023-03-27T09:35:36.071Z,2868.75
2023-03-27T09:36:36.045Z,2283.75
2023-03-27T09:37:37.059Z,2610.00
2023-03-27T09:38:36.025Z,2098.12
2023-03-27T09:39:35.982Z,2542.50
2023-03-27T09:40:35.969Z,2520.00
2023-03-27T09:41:35.960Z,2638.12
2023-03-27T09:42:35.940Z,635.62
2023-03-27T09:43:35.942Z,691.88
2023-03-27T09:44:35.915Z,826.88
2023-03-27T09:45:35.900Z,2919.38
2023-03-27T09:46:35.934Z,2846.25
2023-03-27T09:47:35.937Z,1524.38
2023-03-27T09:48:35.881Z,573.75
2023-03-27T09:49:35.854Z,489.38
2023-03-27T09:50:35.849Z,433.12
2023-03-27T09:51:35.828Z,433.12
2023-03-27T09:52:35.826Z,455.62
2023-03-27T09:53:35.953Z,433.12
2023-03-27T09:54:35.808Z,478.12
2023-03-27T09:55:35.774Z,939.38
2023-03-27T09:56:35.778Z,961.88
2023-03-27T09:57:35.751Z,523.12
2023-03-27T09:58:35.727Z,866.25
2023-03-27T09:59:35.731Z,922.50
2023-03-27T10:00:35.737Z,984.38
2023-03-27T10:01:35.932Z,534.38
2023-03-27T10:02:35.703Z,579.38
2023-03-27T10:03:35.717Z,551.25
2023-03-27T10:04:35.678Z,916.88
2023-03-27T10:05:35.643Z,883.12
2023-03-27T10:06:35.636Z,804.38
2023-03-27T10:07:35.604Z,826.88
2023-03-27T10:08:35.602Z,888.75
2023-03-27T10:09:35.584Z,900.00
2023-03-27T10:10:35.595Z,883.12
2023-03-27T10:11:35.563Z,894.38
2023-03-27T10:12:35.547Z,832.50
2023-03-27T10:13:35.534Z,596.25
2023-03-27T10:14:35.524Z,568.12
2023-03-27T10:15:35.498Z,523.12
2023-03-27T10:16:35.535Z,810.00
2023-03-27T10:17:35.516Z,888.75
2023-03-27T10:18:35.480Z,748.12
2023-03-27T10:19:35.454Z,697.50
2023-03-27T10:20:35.438Z,905.62
2023-03-27T10:21:35.433Z,939.38
2023-03-27T10:22:35.405Z,1102.50
2023-03-27T10:23:35.419Z,1237.50
2023-03-27T10:24:35.381Z,804.38
2023-03-27T10:25:35.370Z,2745.00
2023-03-27T10:26:35.398Z,2818.12
2023-03-27T10:27:35.342Z,2806.88
2023-03-27T10:28:35.327Z,2823.75
2023-03-27T10:29:35.322Z,2750.62
2023-03-27T10:30:35.304Z,2795.62
2023-03-27T10:31:35.305Z,1265.62
2023-03-27T10:32:35.469Z,461.25
2023-03-27T10:33:35.271Z,613.12
2023-03-27T10:34:35.251Z,630.00
2023-03-27T10:35:36.750Z,2733.75
2023-03-27T10:36:35.225Z,3481.88
2023-03-27T10:37:35.370Z,3420.00
2023-03-27T10:38:35.198Z,3138.75
2023-03-27T10:39:35.176Z,2469.38
2023-03-27T10:40:35.170Z,646.88
2023-03-27T10:41:35.150Z,748.12
2023-03-27T10:42:35.168Z,2576.25
2023-03-27T10:43:35.127Z,2570.62
2023-03-27T10:44:35.119Z,2289.38
2023-03-27T10:45:35.099Z,2351.25
2023-03-27T10:46:35.165Z,1732.50
2023-03-27T10:47:35.111Z,1423.12
2023-03-27T10:48:35.060Z,1558.12
2023-03-27T10:49:35.041Z,1327.50
2023-03-27T10:50:35.032Z,877.50
2023-03-27T10:51:45.469Z,466.88
2023-03-27T10:52:36.033Z,489.38
2023-03-27T10:53:35.086Z,365.62
2023-03-27T10:54:35.042Z,371.25
2023-03-27T10:55:34.970Z,444.38
2023-03-27T10:56:34.976Z,483.75
2023-03-27T10:57:34.934Z,495.00
2023-03-27T10:58:34.951Z,382.50
2023-03-27T10:59:41.543Z,1276.88
2023-03-27T11:00:35.915Z,1276.88
2023-03-27T11:01:34.930Z,1181.25
2023-03-27T11:02:34.893Z,1119.38
2023-03-27T11:03:34.892Z,1141.88
2023-03-27T11:04:34.835Z,1473.75
2023-03-27T11:05:34.860Z,725.62
2023-03-27T11:06:34.829Z,663.75
2023-03-27T11:07:34.801Z,511.88
2023-03-27T11:08:34.795Z,427.50
2023-03-27T11:09:34.774Z,360.00
2023-03-27T11:10:34.753Z,320.62
2023-03-27T11:11:34.765Z,303.75
2023-03-27T11:12:34.728Z,303.75
2023-03-27T11:13:34.722Z,298.12
2023-03-27T11:14:34.718Z,292.50
2023-03-27T11:15:34.686Z,286.88
2023-03-27T11:16:34.698Z,579.38
2023-03-27T11:17:34.661Z,551.25
2023-03-27T11:18:34.653Z,517.50
2023-03-27T11:19:34.701Z,601.88
2023-03-27T11:20:34.729Z,916.88
2023-03-27T11:21:34.752Z,1209.38
2023-03-27T11:22:34.668Z,815.62
2023-03-27T11:23:34.574Z,596.25
2023-03-27T11:24:34.588Z,843.75
2023-03-27T11:25:34.541Z,1136.25
2023-03-27T11:26:34.536Z,1237.50
2023-03-27T11:27:34.523Z,1608.75
2023-03-27T11:28:34.515Z,1771.88
2023-03-27T11:29:35.131Z,1198.12
2023-03-27T11:30:34.638Z,2143.12
2023-03-27T11:31:34.699Z,2182.50
2023-03-27T11:32:34.467Z,2767.50
2023-03-27T11:33:34.441Z,1333.12
2023-03-27T11:34:34.439Z,1873.12
2023-03-27T11:35:34.464Z,551.25
2023-03-27T11:36:34.409Z,495.00
2023-03-27T11:37:34.510Z,399.38
2023-03-27T11:38:34.454Z,376.88
2023-03-27T11:39:34.447Z,388.12
2023-03-27T11:40:34.353Z,393.75
2023-03-27T11:41:34.381Z,421.88
2023-03-27T11:42:34.318Z,444.38
2023-03-27T11:43:34.297Z,2829.38
2023-03-27T11:44:34.289Z,804.38
2023-03-27T11:45:34.279Z,2655.00
2023-03-27T11:46:34.362Z,2626.88
2023-03-27T11:47:34.260Z,2655.00
2023-03-27T11:48:34.237Z,2773.12
2023-03-27T11:49:34.235Z,2868.75
2023-03-27T11:50:34.219Z,2902.50
2023-03-27T11:51:34.200Z,2913.75
2023-03-27T11:52:34.184Z,2930.62
2023-03-27T11:53:34.169Z,2840.62
2023-03-27T11:54:34.155Z,2739.38
2023-03-27T11:55:34.156Z,2660.62
2023-03-27T11:56:34.332Z,556.88
2023-03-27T11:57:34.299Z,472.50
2023-03-27T11:58:34.106Z,478.12
2023-03-27T11:59:34.086Z,922.50
2023-03-27T12:00:34.077Z,472.50
2023-03-27T12:01:34.061Z,410.62
2023-03-27T12:02:34.256Z,416.25
2023-03-27T12:03:34.104Z,421.88
2023-03-27T12:04:34.018Z,405.00
2023-03-27T12:05:34.006Z,388.12
2023-03-27T12:06:33.995Z,393.75
2023-03-27T12:07:36.455Z,506.25
2023-03-27T12:08:33.963Z,2525.62
2023-03-27T12:09:33.944Z,2604.38
2023-03-27T12:10:33.933Z,2514.38
2023-03-27T12:11:33.932Z,2351.25
2023-03-27T12:12:33.916Z,2351.25
2023-03-27T12:13:41.136Z,2615.62
2023-03-27T12:14:40.555Z,2750.62
2023-03-27T12:15:34.901Z,2790.00
2023-03-27T12:16:33.895Z,2902.50
2023-03-27T12:17:33.879Z,2913.75
2023-03-27T12:18:36.363Z,916.88
2023-03-27T12:20:33.810Z,871.88
2023-03-27T12:21:33.942Z,1906.88
2023-03-27T12:22:33.781Z,2688.75
2023-03-27T12:23:34.013Z,736.88
2023-03-27T12:24:33.752Z,1496.25
2023-03-27T12:25:36.073Z,585.00
2023-03-27T12:26:33.727Z,438.75
2023-03-27T12:27:33.706Z,337.50
2023-03-27T12:28:33.902Z,275.62
2023-03-27T12:29:33.704Z,258.75
2023-03-27T12:30:33.817Z,253.12
2023-03-27T12:31:33.874Z,281.25
2023-03-27T12:32:33.847Z,354.38
2023-03-27T12:33:33.628Z,2666.25
2023-03-27T12:34:33.720Z,2514.38
2023-03-27T12:35:33.624Z,596.25
2023-03-27T12:36:33.595Z,579.38
2023-03-27T12:37:33.567Z,517.50
2023-03-27T12:38:33.609Z,461.25
2023-03-27T12:39:33.541Z,466.88
2023-03-27T12:40:33.532Z,500.62
2023-03-27T12:41:33.539Z,466.88
2023-03-27T12:42:33.518Z,545.62
2023-03-27T12:43:34.518Z,680.62
2023-03-27T12:44:33.475Z,978.75
2023-03-27T12:45:38.752Z,2553.75
2023-03-27T12:46:34.515Z,2705.62
2023-03-27T12:47:33.467Z,2655.00
2023-03-27T12:48:33.425Z,742.50